createdAt,value
2023-02-12T00:00:51.037Z,51.80
2023-02-12T00:03:21.669Z,51.30
2023-02-12T00:05:51.556Z,51.50
2023-02-12T00:08:20.927Z,51.50
2023-02-12T00:10:50.231Z,50.50
2023-02-12T00:13:19.553Z,50.30
2023-02-12T00:15:49.077Z,49.80
2023-02-12T00:18:19.486Z,49.60
2023-02-12T00:20:48.857Z,49.50
2023-02-12T00:23:19.045Z,49.50
2023-02-12T00:25:48.810Z,48.80
2023-02-12T00:28:18.415Z,49.00
2023-02-12T00:30:47.826Z,48.20
2023-02-12T00:33:18.475Z,47.60
2023-02-12T00:35:48.475Z,47.10
2023-02-12T00:38:18.924Z,46.60
2023-02-12T00:40:48.261Z,46.20
2023-02-12T00:43:17.610Z,46.20
2023-02-12T00:45:48.044Z,46.00
2023-02-12T00:48:19.381Z,46.40
2023-02-12T00:50:50.678Z,45.20
2023-02-12T00:53:21.348Z,45.50
2023-02-12T00:55:50.674Z,45.40
2023-02-12T00:58:20.384Z,44.50
2023-02-12T01:00:49.801Z,44.70
2023-02-12T01:03:19.872Z,45.40
2023-02-12T01:05:49.647Z,45.00
2023-02-12T01:08:19.353Z,44.20
2023-02-12T01:10:56.721Z,44.20
2023-02-12T01:13:27.196Z,45.00
2023-02-12T01:16:12.692Z,44.80
2023-02-12T01:18:42.664Z,44.40
2023-02-12T01:21:17.952Z,44.60
2023-02-12T01:23:47.654Z,44.70
2023-02-12T01:26:17.826Z,45.20
2023-02-12T01:28:51.316Z,45.80
2023-02-12T01:31:22.326Z,45.90
2023-02-12T01:33:52.366Z,45.90
2023-02-12T01:36:22.643Z,45.70
2023-02-12T01:38:52.543Z,44.40
2023-02-12T01:41:24.298Z,44.40
2023-02-12T01:44:09.265Z,44.90
2023-02-12T01:46:38.979Z,44.80
2023-02-12T01:49:10.519Z,45.10
2023-02-12T01:51:40.034Z,44.50
2023-02-12T01:54:11.705Z,44.30
2023-02-12T01:56:41.549Z,44.10
2023-02-12T01:59:11.464Z,44.00
2023-02-12T02:01:40.992Z,43.70
2023-02-12T02:04:23.058Z,42.90
2023-02-12T02:06:58.849Z,42.40
2023-02-12T02:09:29.890Z,40.80
2023-02-12T02:12:17.416Z,41.40
2023-02-12T02:14:47.570Z,41.30
2023-02-12T02:17:32.237Z,41.80
2023-02-12T02:20:20.953Z,41.70
2023-02-12T02:23:03.436Z,40.80
2023-02-12T02:25:53.020Z,40.50
2023-02-12T02:28:35.267Z,40.00
2023-02-12T02:31:08.241Z,41.80
2023-02-12T02:33:41.048Z,41.40
2023-02-12T02:36:29.493Z,41.10
2023-02-12T02:39:08.459Z,40.80
2023-02-12T02:41:41.200Z,40.00
2023-02-12T02:44:15.089Z,40.40
2023-02-12T02:46:47.685Z,39.80
2023-02-12T02:49:24.883Z,40.00
2023-02-12T02:51:58.630Z,40.10
2023-02-12T02:54:43.861Z,38.70
2023-02-12T02:57:33.942Z,38.90
2023-02-12T03:00:22.471Z,38.50
2023-02-12T03:02:57.949Z,37.80
2023-02-12T03:05:32.215Z,37.70
2023-02-12T03:08:04.159Z,37.70
2023-02-12T03:10:38.852Z,38.10
2023-02-12T03:13:10.918Z,38.10
2023-02-12T03:15:43.394Z,37.60
2023-02-12T03:18:15.258Z,37.00
2023-02-12T03:20:47.814Z,37.10
2023-02-12T03:23:23.410Z,36.40
2023-02-12T03:26:06.247Z,36.80
2023-02-12T03:28:37.403Z,36.50
2023-02-12T03:31:17.689Z,36.10
2023-02-12T03:33:48.280Z,36.90
2023-02-12T03:36:18.613Z,36.40
2023-02-12T03:38:50.863Z,35.40
2023-02-12T03:41:25.004Z,36.00
2023-02-12T03:44:02.260Z,35.60
2023-02-12T03:47:04.037Z,35.80
2023-02-12T03:49:38.947Z,36.70
2023-02-12T03:52:08.318Z,36.50
2023-02-12T03:54:38.699Z,36.70
2023-02-12T03:57:11.919Z,36.30
2023-02-12T03:59:42.882Z,36.30
2023-02-12T04:02:12.734Z,36.20
2023-02-12T04:04:42.648Z,35.80
2023-02-12T04:07:12.827Z,35.80
2023-02-12T04:09:42.344Z,35.60
2023-02-12T04:12:31.248Z,35.40
2023-02-12T04:15:11.157Z,35.50
2023-02-12T04:17:59.404Z,36.00
2023-02-12T04:20:33.592Z,35.30
2023-02-12T04:23:06.449Z,35.30
2023-02-12T04:25:54.625Z,35.80
2023-02-12T04:28:31.138Z,35.90
2023-02-12T04:31:27.163Z,35.60
2023-02-12T04:34:06.880Z,35.70
2023-02-12T04:36:39.330Z,35.30
2023-02-12T04:39:13.716Z,35.30
2023-02-12T04:41:44.023Z,35.60
2023-02-12T04:44:18.667Z,35.90
2023-02-12T04:46:47.998Z,36.30
2023-02-12T04:49:19.924Z,37.20
2023-02-12T04:51:49.876Z,37.40
2023-02-12T04:54:20.289Z,37.40
2023-02-12T04:56:50.480Z,36.40
2023-02-12T04:59:21.112Z,37.40
2023-02-12T05:01:50.964Z,37.00
2023-02-12T05:04:21.180Z,36.90
2023-02-12T05:06:51.053Z,37.00
2023-02-12T05:09:23.789Z,37.30
2023-02-12T05:11:53.236Z,37.70
2023-02-12T05:14:23.041Z,38.10
2023-02-12T05:16:52.349Z,38.40
2023-02-12T05:19:22.737Z,38.50
2023-02-12T05:21:53.961Z,39.50
2023-02-12T05:24:23.716Z,39.60
2023-02-12T05:26:54.295Z,39.20
2023-02-12T05:29:25.205Z,39.60
2023-02-12T05:31:54.737Z,39.90
2023-02-12T05:34:25.331Z,39.70
2023-02-12T05:36:55.067Z,40.10
2023-02-12T05:39:24.988Z,40.10
2023-02-12T05:41:55.327Z,40.20
2023-02-12T05:44:25.277Z,40.70
2023-02-12T05:46:55.008Z,40.30
2023-02-12T05:49:25.402Z,40.40
2023-02-12T05:51:55.561Z,40.00
2023-02-12T05:54:24.875Z,40.10
2023-02-12T05:56:54.264Z,40.10
2023-02-12T05:59:24.911Z,40.30
2023-02-12T06:01:54.444Z,40.50
2023-02-12T06:04:25.786Z,40.60
2023-02-12T06:06:55.722Z,40.30
2023-02-12T06:09:25.710Z,40.30
2023-02-12T06:11:55.057Z,40.50
2023-02-12T06:14:24.520Z,40.00
2023-02-12T06:16:54.520Z,40.20
2023-02-12T06:19:25.102Z,39.50
2023-02-12T06:21:54.506Z,39.20
2023-02-12T06:24:23.872Z,39.10
2023-02-12T06:26:53.690Z,38.70
2023-02-12T06:29:23.572Z,38.90
2023-02-12T06:31:53.482Z,39.30
2023-02-12T06:34:23.025Z,38.90
2023-02-12T06:36:53.463Z,38.60
2023-02-12T06:39:23.863Z,38.40
2023-02-12T06:41:54.365Z,38.50
2023-02-12T06:44:24.213Z,37.90
2023-02-12T06:46:53.840Z,37.60
2023-02-12T06:49:23.678Z,37.40
2023-02-12T06:51:53.028Z,37.50
2023-02-12T06:54:23.548Z,37.00
2023-02-12T06:56:52.874Z,37.40
2023-02-12T06:59:22.806Z,36.80
2023-02-12T07:01:53.221Z,37.20
2023-02-12T07:04:23.511Z,36.80
2023-02-12T07:06:53.673Z,36.30
2023-02-12T07:09:23.030Z,36.60
2023-02-12T07:11:52.462Z,37.00
2023-02-12T07:14:21.838Z,36.80
2023-02-12T07:16:51.467Z,36.70
2023-02-12T07:19:24.825Z,36.80
2023-02-12T07:21:54.605Z,37.00
2023-02-12T07:24:27.518Z,41.20
2023-02-12T07:26:56.916Z,43.70
2023-02-12T07:29:26.326Z,44.40
2023-02-12T07:31:55.775Z,44.60
2023-02-12T07:34:26.206Z,44.80
2023-02-12T07:36:56.004Z,45.50
2023-02-12T07:39:25.473Z,46.20
2023-02-12T07:41:54.829Z,47.00
2023-02-12T07:44:24.287Z,47.30
2023-02-12T07:46:53.632Z,48.50
2023-02-12T07:49:27.227Z,49.30
2023-02-12T07:51:58.393Z,50.00
2023-02-12T07:54:28.254Z,50.30
2023-02-12T07:56:57.597Z,50.80
2023-02-12T07:59:27.482Z,51.10
2023-02-12T08:01:58.300Z,51.50
2023-02-12T08:04:27.994Z,51.90
2023-02-12T08:06:58.532Z,52.80
2023-02-12T08:09:29.371Z,53.00
2023-02-12T08:11:59.933Z,53.90
2023-02-12T08:14:30.153Z,54.40
2023-02-12T08:16:59.532Z,54.00
2023-02-12T08:19:28.890Z,54.80
2023-02-12T08:21:59.749Z,54.90
2023-02-12T08:24:29.196Z,55.30
2023-02-12T08:26:59.273Z,55.60
2023-02-12T08:29:30.859Z,56.10
2023-02-12T08:32:01.900Z,56.20
2023-02-12T08:34:32.677Z,56.20
2023-02-12T08:37:02.887Z,56.40
2023-02-12T08:39:32.346Z,56.80
2023-02-12T08:42:03.190Z,57.00
2023-02-12T08:44:33.557Z,57.40
2023-02-12T08:47:03.095Z,57.80
2023-02-12T08:49:33.028Z,58.10
2023-02-12T08:52:05.186Z,58.60
2023-02-12T08:54:34.657Z,58.60
2023-02-12T08:57:05.309Z,59.10
2023-02-12T08:59:34.716Z,58.90
2023-02-12T09:02:05.671Z,59.40
2023-02-12T09:04:35.820Z,59.30
2023-02-12T09:07:07.342Z,59.80
2023-02-12T09:09:38.254Z,59.80
2023-02-12T09:12:07.711Z,59.70
2023-02-12T09:14:37.062Z,59.90
2023-02-12T09:17:06.601Z,60.30
2023-02-12T09:19:36.050Z,60.50
2023-02-12T09:22:05.417Z,60.40
2023-02-12T09:24:35.796Z,60.60
2023-02-12T09:27:05.203Z,60.70
2023-02-12T09:29:34.600Z,61.00
2023-02-12T09:32:07.160Z,61.00
2023-02-12T09:34:38.332Z,61.50
2023-02-12T09:37:07.662Z,61.70
2023-02-12T09:39:37.705Z,61.80
2023-02-12T09:42:25.343Z,61.70
2023-02-12T09:44:55.238Z,62.00
2023-02-12T09:47:53.550Z,62.20
2023-02-12T09:50:23.754Z,62.70
2023-02-12T09:52:54.387Z,62.60
2023-02-12T09:55:26.646Z,62.90
2023-02-12T09:57:56.057Z,62.90
2023-02-12T10:00:32.896Z,63.10
2023-02-12T10:03:06.338Z,62.80
2023-02-12T10:05:41.772Z,63.00
2023-02-12T10:08:24.814Z,62.70
2023-02-12T10:10:55.738Z,62.70
2023-02-12T10:13:43.065Z,62.90
2023-02-12T10:16:17.011Z,62.90
2023-02-12T10:18:57.995Z,63.10
2023-02-12T10:21:43.636Z,63.00
2023-02-12T10:24:29.516Z,63.50
2023-02-12T10:27:00.698Z,63.70
2023-02-12T10:29:33.431Z,63.20
2023-02-12T10:32:05.455Z,64.10
2023-02-12T10:34:36.426Z,63.80
2023-02-12T10:37:11.797Z,63.70
2023-02-12T10:39:44.740Z,64.10
2023-02-12T10:42:32.235Z,64.20
2023-02-12T10:45:02.155Z,64.30
2023-02-12T10:47:32.907Z,64.00
2023-02-12T10:50:04.254Z,64.10
2023-02-12T10:52:51.737Z,64.10
2023-02-12T10:55:31.390Z,64.10
2023-02-12T10:58:01.787Z,64.10
2023-02-12T11:00:38.508Z,64.70
2023-02-12T11:03:07.977Z,65.00
2023-02-12T11:05:38.410Z,64.70
2023-02-12T11:08:08.272Z,64.50
2023-02-12T11:10:42.521Z,64.50
2023-02-12T11:13:28.344Z,64.40
2023-02-12T11:15:58.585Z,64.80
2023-02-12T11:18:30.622Z,64.70
2023-02-12T11:21:02.804Z,65.00
2023-02-12T11:23:33.615Z,65.60
2023-02-12T11:26:05.594Z,65.60
2023-02-12T11:28:36.420Z,65.50
2023-02-12T11:31:12.057Z,65.70
2023-02-12T11:33:41.632Z,65.70
2023-02-12T11:36:17.378Z,65.40
2023-02-12T11:38:52.108Z,65.90
2023-02-12T20:38:29.889Z,72.50
2023-02-12T20:41:01.938Z,72.30
2023-02-12T20:43:32.127Z,72.10
2023-02-12T20:46:09.092Z,72.70
2023-02-12T20:48:40.056Z,71.80
2023-02-12T20:51:11.261Z,71.80
2023-02-12T20:53:40.714Z,71.60
2023-02-12T20:56:11.146Z,71.70
2023-02-12T20:58:42.109Z,71.90
2023-02-12T21:01:12.690Z,71.70
2023-02-12T21:03:43.048Z,72.60
2023-02-12T21:06:13.017Z,72.10
2023-02-12T21:08:44.055Z,71.40
2023-02-12T21:11:16.820Z,71.50
2023-02-12T21:13:58.750Z,71.50
2023-02-12T21:16:36.190Z,71.00
2023-02-12T21:19:05.950Z,70.30
2023-02-12T21:21:36.649Z,70.10
2023-02-12T21:24:07.670Z,69.80
2023-02-12T21:26:37.450Z,70.30
2023-02-12T21:29:07.163Z,70.30
2023-02-12T21:31:38.511Z,70.00
2023-02-12T21:34:08.849Z,70.30
2023-02-12T21:36:39.607Z,70.50
2023-02-12T21:39:10.385Z,70.80
2023-02-12T21:41:40.930Z,70.40
2023-02-12T21:44:19.057Z,70.50
2023-02-12T21:46:49.288Z,71.20
2023-02-12T21:49:26.180Z,71.00
2023-02-12T21:51:56.953Z,71.30
2023-02-12T21:54:26.397Z,71.20
2023-02-12T21:56:55.826Z,70.90
2023-02-12T21:59:26.627Z,71.00
2023-02-12T22:01:57.707Z,70.80
2023-02-12T22:04:27.195Z,70.70
2023-02-12T22:06:58.079Z,69.80
2023-02-12T22:09:28.014Z,69.10
2023-02-12T22:11:57.458Z,69.30
2023-02-12T22:14:26.806Z,69.50
2023-02-12T22:16:56.152Z,69.50
2023-02-12T22:19:25.541Z,69.80
2023-02-12T22:21:55.014Z,69.80
2023-02-12T22:24:25.507Z,69.30
2023-02-12T22:26:56.269Z,69.30
2023-02-12T22:29:26.125Z,68.80
2023-02-12T22:31:57.090Z,68.60
2023-02-12T22:34:26.548Z,68.90
2023-02-12T22:36:56.887Z,68.70
2023-02-12T22:39:26.245Z,68.80
2023-02-12T22:41:55.575Z,68.60
2023-02-12T22:44:25.035Z,68.60
2023-02-12T22:46:54.486Z,68.70
2023-02-12T22:49:23.931Z,67.50
2023-02-12T22:51:54.295Z,68.10
2023-02-12T22:54:23.879Z,68.20
2023-02-12T22:56:54.337Z,67.60
2023-02-12T22:59:23.850Z,67.30
2023-02-12T23:01:55.127Z,67.20
2023-02-12T23:04:25.501Z,67.00
2023-02-12T23:06:54.850Z,67.50
2023-02-12T23:09:24.178Z,66.80
2023-02-12T23:11:54.079Z,66.50
2023-02-12T23:14:23.656Z,66.70
2023-02-12T23:16:54.354Z,66.60
2023-02-12T23:19:23.827Z,67.00
2023-02-12T23:21:53.258Z,67.00
2023-02-12T23:24:22.675Z,67.50
2023-02-12T23:26:52.467Z,67.30
2023-02-12T23:29:21.949Z,66.90
2023-02-12T23:31:51.340Z,66.90
2023-02-12T23:34:20.808Z,66.60
2023-02-12T23:36:51.195Z,66.80
2023-02-12T23:39:20.588Z,67.30
2023-02-12T23:41:49.950Z,67.10
2023-02-12T23:44:19.305Z,67.40
2023-02-12T23:46:53.439Z,66.70
2023-02-12T23:49:23.835Z,66.60
2023-02-12T23:51:53.612Z,66.80
2023-02-12T23:54:22.972Z,65.90
2023-02-12T23:56:52.328Z,66.40
2023-02-12T23:59:22.131Z,66.00
